Time;durP1;ratioP1;P1;durP2;ratioP2;P2;SDS_P1;SDS_P2;PMS_P1;PMS_P2;Temp;Humidity;BMP_temperature;BMP_pressure;BME280_temperature;BME280_humidity;BME280_pressure;Samples;Min_cycle;Max_cycle;Signal;HPM_P1;HPM_P2
2023/04/25 00:02:11;;;;;;;;;;;9.40;92.60;;;;;;5111234;28;19911;-67
2023/04/25 00:04:37;;;;;;;;;;;9.30;92.60;;;;;;5111136;28;19911;-67
2023/04/25 00:07:03;;;;;;;;;;;9.30;92.60;;;;;;5110958;28;20344;-67
2023/04/25 00:09:28;;;;;;;;;;;9.30;92.50;;;;;;5110926;27;19908;-66
2023/04/25 00:11:54;;;;;;;;;;;9.30;92.60;;;;;;5110931;28;19908;-66
2023/04/25 00:14:19;;;;;;;;;;;9.30;92.60;;;;;;5111331;27;19908;-66
2023/04/25 00:16:45;;;;;;;;;;;9.30;92.60;;;;;;5110230;28;19908;-66
2023/04/25 00:19:11;;;;;;;;;;;9.30;92.60;;;;;;5110802;28;19979;-66
2023/04/25 00:21:40;;;;;;;;;;;9.30;92.60;;;;;;5109750;28;20261;-66
2023/04/25 00:24:06;;;;;;;;;;;9.30;92.60;;;;;;5110666;28;19912;-66
2023/04/25 00:26:31;;;;;;;;;;;9.30;92.60;;;;;;5111034;28;20591;-66
2023/04/25 00:28:57;;;;;;;;;;;9.30;92.60;;;;;;5110624;28;19929;-66
2023/04/25 00:31:22;;;;;;;;;;;9.30;92.60;;;;;;5111065;28;19919;-66
2023/04/25 00:33:48;;;;;;;;;;;9.20;92.60;;;;;;5109468;28;19911;-66
2023/04/25 00:36:13;;;;;;;;;;;9.30;92.60;;;;;;5110097;28;20413;-66
2023/04/25 00:38:39;;;;;;;;;;;9.20;92.60;;;;;;5108351;28;19958;-66
2023/04/25 00:41:08;;;;;;;;;;;9.20;92.70;;;;;;5109640;28;19916;-66
2023/04/25 00:43:33;;;;;;;;;;;9.20;92.70;;;;;;5109207;28;19922;-66
2023/04/25 00:46:00;;;;;;;;;;;9.20;92.80;;;;;;5109672;28;19911;-66
2023/04/25 00:48:25;;;;;;;;;;;9.20;92.80;;;;;;5109433;28;19907;-66
2023/04/25 00:50:53;;;;;;;;;;;9.20;92.80;;;;;;5109205;28;19919;-66
2023/04/25 00:53:18;;;;;;;;;;;9.20;92.80;;;;;;5107607;28;19919;-66
2023/04/25 00:55:44;;;;;;;;;;;9.20;92.80;;;;;;5109552;28;19911;-66
2023/04/25 00:58:09;;;;;;;;;;;9.20;92.80;;;;;;5109069;28;20555;-66
2023/04/25 01:00:35;;;;;;;;;;;9.20;92.80;;;;;;5109554;28;19908;-66
2023/04/25 01:03:03;;;;;;;;;;;9.20;92.70;;;;;;5109968;28;19976;-66
2023/04/25 01:05:29;;;;;;;;;;;9.10;92.80;;;;;;5109192;28;20447;-67
2023/04/25 01:07:54;;;;;;;;;;;9.20;92.80;;;;;;5108576;28;20013;-66
2023/04/25 01:10:20;;;;;;;;;;;9.20;92.80;;;;;;5108458;28;19908;-66
2023/04/25 01:12:46;;;;;;;;;;;9.20;92.80;;;;;;5109717;28;19911;-66
2023/04/25 01:15:11;;;;;;;;;;;9.10;92.80;;;;;;5108537;28;19918;-66
2023/04/25 01:17:37;;;;;;;;;;;9.10;92.90;;;;;;5109757;28;20018;-66
2023/04/25 01:20:07;;;;;;;;;;;9.10;92.90;;;;;;5109210;28;19920;-66
2023/04/25 01:22:33;;;;;;;;;;;9.10;92.90;;;;;;5109457;28;19922;-66
2023/04/25 01:24:59;;;;;;;;;;;9.10;93.00;;;;;;5108207;28;19908;-66
2023/04/25 01:27:25;;;;;;;;;;;9.10;92.90;;;;;;5109576;28;20049;-66
2023/04/25 01:29:51;;;;;;;;;;;9.10;92.90;;;;;;5109671;28;19998;-66
2023/04/25 01:32:17;;;;;;;;;;;9.10;93.00;;;;;;5104033;28;20409;-66
2023/04/25 01:34:42;;;;;;;;;;;9.10;92.90;;;;;;5088504;28;19999;-66
2023/04/25 01:37:08;;;;;;;;;;;9.10;93.00;;;;;;5088387;28;20042;-66
2023/04/25 01:39:33;;;;;;;;;;;9.10;93.00;;;;;;5088430;28;20353;-66
2023/04/25 01:41:59;;;;;;;;;;;9.10;93.00;;;;;;5103597;28;19915;-66
2023/04/25 01:44:25;;;;;;;;;;;9.10;93.00;;;;;;5108463;28;19915;-66
2023/04/25 01:46:51;;;;;;;;;;;9.10;93.00;;;;;;5109534;28;19915;-66
2023/04/25 01:49:16;;;;;;;;;;;9.10;93.10;;;;;;5109188;28;20444;-66
2023/04/25 01:51:42;;;;;;;;;;;9.10;93.10;;;;;;5107818;28;20638;-66
2023/04/25 01:54:08;;;;;;;;;;;9.10;93.10;;;;;;5108749;28;19965;-66
2023/04/25 01:56:36;;;;;;;;;;;9.10;93.00;;;;;;5109282;28;19969;-66
2023/04/25 01:59:01;;;;;;;;;;;9.10;93.10;;;;;;5102057;28;20692;-66
2023/04/25 02:01:27;;;;;;;;;;;9.10;93.10;;;;;;5109261;28;19911;-66
2023/04/25 02:03:52;;;;;;;;;;;9.10;93.10;;;;;;5108732;28;19916;-66
2023/04/25 02:06:18;;;;;;;;;;;9.10;93.10;;;;;;5109278;28;20495;-66
2023/04/25 02:08:43;;;;;;;;;;;9.10;93.00;;;;;;5107568;28;19907;-66
2023/04/25 02:11:09;;;;;;;;;;;9.10;93.10;;;;;;5108951;28;19943;-66
2023/04/25 02:13:34;;;;;;;;;;;9.10;93.00;;;;;;5107300;28;20345;-66
2023/04/25 02:16:00;;;;;;;;;;;9.10;93.10;;;;;;5109016;28;19991;-66
2023/04/25 02:18:26;;;;;;;;;;;9.10;93.10;;;;;;5107382;28;19949;-66
2023/04/25 02:20:51;;;;;;;;;;;9.00;93.10;;;;;;5108719;28;19919;-66
2023/04/25 02:23:18;;;;;;;;;;;9.00;93.10;;;;;;5108325;28;19915;-66
2023/04/25 02:25:44;;;;;;;;;;;9.00;93.00;;;;;;5108560;28;19908;-67
2023/04/25 02:28:10;;;;;;;;;;;9.00;93.20;;;;;;5108707;28;20406;-66
2023/04/25 02:30:36;;;;;;;;;;;9.00;93.20;;;;;;5108547;28;19912;-66
2023/04/25 02:33:01;;;;;;;;;;;9.00;93.20;;;;;;5108517;28;20712;-66
2023/04/25 02:35:27;;;;;;;;;;;9.00;93.20;;;;;;5108655;28;20268;-66
2023/04/25 02:37:52;;;;;;;;;;;9.00;93.30;;;;;;5107450;28;19911;-66
2023/04/25 02:40:18;;;;;;;;;;;9.00;93.30;;;;;;5108441;28;19912;-66
2023/04/25 02:42:45;;;;;;;;;;;9.00;93.20;;;;;;5108407;28;20624;-66
2023/04/25 02:45:11;;;;;;;;;;;9.00;93.20;;;;;;5107313;28;19988;-66
2023/04/25 02:47:36;;;;;;;;;;;9.00;93.20;;;;;;5108583;28;19916;-66
2023/04/25 02:50:02;;;;;;;;;;;9.00;93.20;;;;;;5107155;28;20364;-66
2023/04/25 02:52:27;;;;;;;;;;;9.00;93.20;;;;;;5108293;28;20348;-66
2023/04/25 02:54:53;;;;;;;;;;;9.00;93.30;;;;;;5108361;28;20258;-66
2023/04/25 02:57:19;;;;;;;;;;;9.00;93.30;;;;;;5102475;28;20341;-66
2023/04/25 02:59:44;;;;;;;;;;;9.00;93.30;;;;;;5108222;28;19908;-66
2023/04/25 03:02:10;;;;;;;;;;;9.00;93.40;;;;;;5108293;28;20340;-66
2023/04/25 03:04:35;;;;;;;;;;;9.00;93.30;;;;;;5108093;28;19966;-66
2023/04/25 03:07:05;;;;;;;;;;;8.90;93.20;;;;;;5106647;28;19947;-66
2023/04/25 03:09:30;;;;;;;;;;;9.00;93.30;;;;;;5107463;28;19919;-66
2023/04/25 03:11:56;;;;;;;;;;;9.00;93.40;;;;;;5107731;28;19988;-66
2023/04/25 03:14:21;;;;;;;;;;;8.90;93.40;;;;;;5106984;28;19912;-66
2023/04/25 03:16:47;;;;;;;;;;;9.00;93.50;;;;;;5108167;28;19908;-66
2023/04/25 03:19:15;;;;;;;;;;;9.00;93.50;;;;;;5108196;28;19915;-66
2023/04/25 03:21:41;;;;;;;;;;;9.00;93.40;;;;;;5108527;28;19912;-66
2023/04/25 03:24:06;;;;;;;;;;;8.90;93.50;;;;;;5107783;28;20019;-66
2023/04/25 03:26:32;;;;;;;;;;;8.90;93.50;;;;;;5100215;28;19912;-66
2023/04/25 03:28:57;;;;;;;;;;;8.90;93.40;;;;;;5110674;28;19950;-66
2023/04/25 03:31:23;;;;;;;;;;;8.90;93.40;;;;;;5111954;28;19908;-66
2023/04/25 03:33:48;;;;;;;;;;;8.90;93.50;;;;;;5111402;28;19961;-66
2023/04/25 03:36:14;;;;;;;;;;;8.90;93.50;;;;;;5112259;28;19912;-66
2023/04/25 03:38:41;;;;;;;;;;;8.90;93.40;;;;;;5144530;27;19919;-66
2023/04/25 03:41:07;;;;;;;;;;;8.90;93.40;;;;;;5111647;28;20412;-66
2023/04/25 03:43:32;;;;;;;;;;;8.90;93.50;;;;;;5111321;28;19916;-66
2023/04/25 03:45:58;;;;;;;;;;;8.90;93.50;;;;;;5111628;28;20369;-66
2023/04/25 03:48:25;;;;;;;;;;;8.90;93.50;;;;;;5111641;28;19914;-66
2023/04/25 03:50:51;;;;;;;;;;;8.90;93.50;;;;;;5110058;28;19916;-66
2023/04/25 03:53:17;;;;;;;;;;;8.90;93.50;;;;;;5111153;27;19956;-66
2023/04/25 03:55:42;;;;;;;;;;;8.90;93.50;;;;;;5109971;28;20015;-66
2023/04/25 03:58:08;;;;;;;;;;;8.90;93.50;;;;;;5110790;28;19911;-66
2023/04/25 04:00:34;;;;;;;;;;;8.90;93.50;;;;;;5109377;28;19922;-66
2023/04/25 04:03:00;;;;;;;;;;;8.90;93.60;;;;;;5110991;28;19908;-66
2023/04/25 04:05:25;;;;;;;;;;;8.90;93.60;;;;;;5110989;28;19912;-66
2023/04/25 04:07:51;;;;;;;;;;;8.90;93.60;;;;;;5111280;28;19920;-66
2023/04/25 04:10:16;;;;;;;;;;;8.90;93.60;;;;;;5109703;28;19912;-66
2023/04/25 04:12:42;;;;;;;;;;;8.90;93.60;;;;;;5110742;28;20003;-67
2023/04/25 04:15:07;;;;;;;;;;;8.90;93.60;;;;;;5109704;28;20010;-66
2023/04/25 04:17:33;;;;;;;;;;;8.80;93.60;;;;;;5109488;28;19946;-66
2023/04/25 04:19:59;;;;;;;;;;;8.80;93.60;;;;;;5110694;28;20026;-66
2023/04/25 04:22:24;;;;;;;;;;;8.90;93.60;;;;;;5110787;28;20421;-66
2023/04/25 04:24:50;;;;;;;;;;;8.80;93.70;;;;;;5110715;28;19936;-66
2023/04/25 04:27:17;;;;;;;;;;;8.80;93.60;;;;;;5110657;28;19915;-66
2023/04/25 04:29:43;;;;;;;;;;;8.80;93.60;;;;;;5110222;28;20365;-66
2023/04/25 04:32:08;;;;;;;;;;;8.80;93.50;;;;;;5110164;28;19941;-67
2023/04/25 04:34:34;;;;;;;;;;;8.90;93.40;;;;;;5110439;28;19949;-66
2023/04/25 04:37:00;;;;;;;;;;;8.90;93.40;;;;;;5110822;28;20011;-66
2023/04/25 04:39:25;;;;;;;;;;;8.90;93.30;;;;;;5109183;28;20006;-66
2023/04/25 04:41:51;;;;;;;;;;;8.90;93.30;;;;;;5110181;28;19919;-66
2023/04/25 04:44:16;;;;;;;;;;;8.90;93.30;;;;;;5109129;28;19916;-66
2023/04/25 04:46:42;;;;;;;;;;;8.90;93.30;;;;;;5108776;28;19916;-66
2023/04/25 04:49:08;;;;;;;;;;;8.90;93.30;;;;;;5110198;28;19919;-66
2023/04/25 04:51:34;;;;;;;;;;;8.90;93.30;;;;;;5109894;28;19946;-66
2023/04/25 04:54:02;;;;;;;;;;;8.80;93.30;;;;;;5108689;28;20280;-66
2023/04/25 04:56:29;;;;;;;;;;;8.90;93.20;;;;;;5110325;28;19931;-66
2023/04/25 04:58:54;;;;;;;;;;;8.80;93.30;;;;;;5103540;28;19915;-66
2023/04/25 05:01:20;;;;;;;;;;;8.80;93.20;;;;;;5109982;28;19908;-66
2023/04/25 05:03:45;;;;;;;;;;;8.80;93.20;;;;;;5108244;28;20381;-66
2023/04/25 05:06:11;;;;;;;;;;;8.80;93.20;;;;;;5110175;28;19916;-66
2023/04/25 05:08:36;;;;;;;;;;;8.80;93.20;;;;;;5109942;28;19919;-66
2023/04/25 05:11:02;;;;;;;;;;;8.80;93.20;;;;;;5109828;28;20042;-66
2023/04/25 05:13:27;;;;;;;;;;;8.80;93.20;;;;;;5107808;28;19965;-66
2023/04/25 05:15:53;;;;;;;;;;;8.80;93.20;;;;;;5109104;28;19912;-66
2023/04/25 05:18:18;;;;;;;;;;;8.80;93.20;;;;;;5107851;28;20031;-66
2023/04/25 05:20:44;;;;;;;;;;;8.80;93.20;;;;;;5108778;28;19915;-66
2023/04/25 05:23:09;;;;;;;;;;;8.80;93.50;;;;;;5107544;28;19923;-66
2023/04/25 05:25:35;;;;;;;;;;;8.80;93.20;;;;;;5109485;28;19978;-66
2023/04/25 05:28:00;;;;;;;;;;;8.80;93.20;;;;;;5109435;28;20273;-66
2023/04/25 05:30:26;;;;;;;;;;;8.80;93.20;;;;;;5108232;28;19912;-66
2023/04/25 05:32:51;;;;;;;;;;;8.80;93.20;;;;;;5109198;28;19911;-66
2023/04/25 05:35:17;;;;;;;;;;;8.80;93.20;;;;;;5109385;28;20288;-66
2023/04/25 05:37:42;;;;;;;;;;;8.80;93.20;;;;;;5109446;28;19923;-66
2023/04/25 05:40:08;;;;;;;;;;;8.80;93.20;;;;;;5109127;28;19911;-66
2023/04/25 05:42:34;;;;;;;;;;;8.80;93.20;;;;;;5108952;28;19919;-66
2023/04/25 05:45:00;;;;;;;;;;;8.80;93.20;;;;;;5109306;28;20041;-66
2023/04/25 05:47:26;;;;;;;;;;;8.80;93.20;;;;;;5109069;28;20320;-66
2023/04/25 05:49:51;;;;;;;;;;;8.80;93.20;;;;;;5109144;28;19912;-66
2023/04/25 05:52:17;;;;;;;;;;;8.80;93.30;;;;;;5108558;28;19912;-66
2023/04/25 05:54:42;;;;;;;;;;;8.80;93.20;;;;;;5108960;28;19908;-67
2023/04/25 05:57:08;;;;;;;;;;;8.80;93.20;;;;;;5108634;28;19912;-66
2023/04/25 05:59:34;;;;;;;;;;;8.80;93.20;;;;;;5108358;28;19912;-67
2023/04/25 06:02:00;;;;;;;;;;;8.80;93.30;;;;;;5108529;28;20638;-67
2023/04/25 06:04:26;;;;;;;;;;;8.80;93.20;;;;;;5108358;28;20661;-66
2023/04/25 06:06:51;;;;;;;;;;;8.80;93.20;;;;;;5108792;28;19916;-66
2023/04/25 06:09:17;;;;;;;;;;;8.90;93.20;;;;;;5108718;28;19911;-66
2023/04/25 06:11:42;;;;;;;;;;;8.90;93.20;;;;;;5108926;28;19912;-67
2023/04/25 06:14:08;;;;;;;;;;;8.90;93.20;;;;;;5108791;28;19918;-66
2023/04/25 06:16:33;;;;;;;;;;;8.90;93.10;;;;;;5108968;28;20367;-66
2023/04/25 06:18:59;;;;;;;;;;;8.90;93.20;;;;;;5108431;28;19923;-66
2023/04/25 06:21:24;;;;;;;;;;;8.90;93.20;;;;;;5109044;28;19918;-66
2023/04/25 06:23:50;;;;;;;;;;;9.00;93.20;;;;;;5108525;28;19964;-67
2023/04/25 06:26:15;;;;;;;;;;;9.00;93.20;;;;;;5108630;28;19988;-66
2023/04/25 06:28:41;;;;;;;;;;;9.00;93.20;;;;;;5108822;28;19916;-66
2023/04/25 06:31:06;;;;;;;;;;;9.00;93.20;;;;;;5109129;28;19912;-66
2023/04/25 06:33:32;;;;;;;;;;;9.00;93.30;;;;;;5108349;28;19998;-66
2023/04/25 06:35:57;;;;;;;;;;;9.00;93.30;;;;;;5108653;28;20265;-69
2023/04/25 06:38:22;;;;;;;;;;;9.00;93.30;;;;;;5108865;28;19915;-68
2023/04/25 06:40:48;;;;;;;;;;;9.00;93.20;;;;;;5108229;28;19964;-68
2023/04/25 06:43:13;;;;;;;;;;;9.00;93.20;;;;;;5108559;28;19915;-68
2023/04/25 06:45:39;;;;;;;;;;;9.00;93.20;;;;;;5108977;28;19952;-68
2023/04/25 06:48:04;;;;;;;;;;;9.10;93.10;;;;;;5108694;28;19915;-68
2023/04/25 06:50:30;;;;;;;;;;;9.10;93.10;;;;;;5108378;28;19908;-69
2023/04/25 06:52:55;;;;;;;;;;;9.10;93.10;;;;;;5108222;28;19918;-69
2023/04/25 06:55:21;;;;;;;;;;;9.10;93.10;;;;;;5108342;28;19950;-69
2023/04/25 06:57:46;;;;;;;;;;;9.10;93.00;;;;;;5102304;28;19912;-68
2023/04/25 07:00:12;;;;;;;;;;;9.20;93.00;;;;;;5108180;28;19915;-68
2023/04/25 07:02:38;;;;;;;;;;;9.20;93.00;;;;;;5109061;28;19919;-68
2023/04/25 07:05:04;;;;;;;;;;;9.30;93.00;;;;;;5112035;28;19950;-68
2023/04/25 07:07:30;;;;;;;;;;;9.30;92.80;;;;;;5112200;28;20523;-68
2023/04/25 07:09:56;;;;;;;;;;;9.30;92.90;;;;;;5112118;28;19908;-69
2023/04/25 07:12:21;;;;;;;;;;;9.30;92.90;;;;;;5111999;28;20630;-69
2023/04/25 07:14:47;;;;;;;;;;;9.20;92.90;;;;;;5112086;28;19964;-68
2023/04/25 07:17:12;;;;;;;;;;;9.20;92.80;;;;;;5110607;28;19912;-68
2023/04/25 07:19:39;;;;;;;;;;;9.20;92.90;;;;;;5111917;28;19915;-68
2023/04/25 07:22:05;;;;;;;;;;;9.20;92.80;;;;;;5111887;28;19912;-69
2023/04/25 07:24:31;;;;;;;;;;;9.20;92.90;;;;;;5111740;28;19919;-68
2023/04/25 07:26:57;;;;;;;;;;;9.20;92.70;;;;;;5111929;28;19916;-68
2023/04/25 07:29:23;;;;;;;;;;;9.20;92.80;;;;;;5111660;27;19912;-68
2023/04/25 07:31:49;;;;;;;;;;;9.30;92.80;;;;;;5111834;28;20021;-68
2023/04/25 07:34:15;;;;;;;;;;;9.30;92.70;;;;;;5111828;28;19955;-68
2023/04/25 07:36:41;;;;;;;;;;;9.40;92.70;;;;;;5111879;28;19954;-68
2023/04/25 07:39:07;;;;;;;;;;;9.40;92.70;;;;;;5111414;28;19973;-68
2023/04/25 07:41:33;;;;;;;;;;;9.40;92.60;;;;;;5111499;28;19946;-68
2023/04/25 07:43:58;;;;;;;;;;;9.50;92.60;;;;;;5111274;28;19943;-68
2023/04/25 07:46:24;;;;;;;;;;;9.50;92.60;;;;;;5110347;28;20361;-68
2023/04/25 07:48:49;;;;;;;;;;;9.50;92.50;;;;;;5111592;28;19958;-68
2023/04/25 07:51:15;;;;;;;;;;;9.60;92.50;;;;;;5111718;28;20312;-68
2023/04/25 07:53:40;;;;;;;;;;;9.60;92.40;;;;;;5110819;28;19912;-69
2023/04/25 07:56:06;;;;;;;;;;;9.70;92.40;;;;;;5110093;28;19978;-69
2023/04/25 07:58:31;;;;;;;;;;;9.60;92.30;;;;;;5110637;28;19954;-68
2023/04/25 08:00:57;;;;;;;;;;;9.70;92.30;;;;;;5111237;28;19960;-69
2023/04/25 08:03:22;;;;;;;;;;;9.70;92.30;;;;;;5109483;28;20386;-68
2023/04/25 08:05:48;;;;;;;;;;;9.70;92.30;;;;;;5111465;28;19908;-68
2023/04/25 08:08:13;;;;;;;;;;;9.70;92.20;;;;;;5111249;28;19912;-69
2023/04/25 08:10:39;;;;;;;;;;;9.80;92.10;;;;;;5110934;28;20389;-68
2023/04/25 08:13:04;;;;;;;;;;;9.90;92.00;;;;;;5110519;28;20353;-69
2023/04/25 08:15:30;;;;;;;;;;;10.00;91.80;;;;;;5111129;28;20006;-68
2023/04/25 08:17:55;;;;;;;;;;;10.00;91.80;;;;;;5110839;28;20015;-69
2023/04/25 08:20:21;;;;;;;;;;;9.90;91.80;;;;;;5109308;28;20034;-67
2023/04/25 08:22:48;;;;;;;;;;;10.00;91.70;;;;;;5109538;28;20713;-67
2023/04/25 08:25:14;;;;;;;;;;;10.00;91.80;;;;;;5110506;28;19912;-67
2023/04/25 08:27:40;;;;;;;;;;;10.00;91.70;;;;;;5110692;28;19965;-67
2023/04/25 08:30:05;;;;;;;;;;;10.00;91.60;;;;;;5110721;28;20498;-67
2023/04/25 08:32:31;;;;;;;;;;;10.00;91.60;;;;;;5110315;27;20269;-66
2023/04/25 08:34:56;;;;;;;;;;;10.10;91.50;;;;;;5110463;28;19957;-67
2023/04/25 08:37:22;;;;;;;;;;;10.20;91.40;;;;;;5110360;28;20428;-67
2023/04/25 08:39:53;;;;;;;;;;;10.20;91.30;;;;;;5110016;28;19912;-67
2023/04/25 08:42:19;;;;;;;;;;;10.20;91.20;;;;;;5110138;28;19914;-66
2023/04/25 08:44:45;;;;;;;;;;;10.20;91.20;;;;;;5110317;28;19911;-67
2023/04/25 08:47:10;;;;;;;;;;;10.30;91.20;;;;;;5109803;28;19927;-67
2023/04/25 08:49:37;;;;;;;;;;;10.30;91.20;;;;;;5109779;28;20041;-67
2023/04/25 08:52:06;;;;;;;;;;;10.30;91.10;;;;;;5109442;28;19919;-66
2023/04/25 08:54:32;;;;;;;;;;;10.30;91.10;;;;;;5107610;28;19998;-67
2023/04/25 08:57:01;;;;;;;;;;;10.30;91.00;;;;;;5107753;28;20002;-66
2023/04/25 08:59:27;;;;;;;;;;;10.30;91.10;;;;;;5108695;28;19919;-67
2023/04/25 09:01:52;;;;;;;;;;;10.30;91.00;;;;;;5108717;28;19915;-67
2023/04/25 09:04:18;;;;;;;;;;;10.40;91.00;;;;;;5103666;28;19908;-67
2023/04/25 09:06:44;;;;;;;;;;;10.40;91.00;;;;;;5108724;28;19916;-67
2023/04/25 09:09:10;;;;;;;;;;;10.40;90.80;;;;;;5108178;28;19911;-67
2023/04/25 09:11:36;;;;;;;;;;;10.50;90.70;;;;;;5109924;28;19908;-67
2023/04/25 09:14:11;;;;;;;;;;;10.50;90.60;;;;;;5109427;28;19912;-67
2023/04/25 09:16:56;;;;;;;;;;;10.60;90.40;;;;;;5109890;28;19912;-67
2023/04/25 09:19:26;;;;;;;;;;;10.60;90.40;;;;;;5109390;28;20030;-67
2023/04/25 09:21:56;;;;;;;;;;;10.60;90.40;;;;;;5109746;28;19912;-67
2023/04/25 09:24:33;;;;;;;;;;;10.70;90.30;;;;;;5109298;28;19911;-67
2023/04/25 09:26:58;;;;;;;;;;;10.70;90.20;;;;;;5108982;28;19958;-67
2023/04/25 09:29:31;;;;;;;;;;;10.70;90.10;;;;;;5109401;28;19947;-67
2023/04/25 09:32:15;;;;;;;;;;;10.80;90.00;;;;;;5108142;28;19939;-66
2023/04/25 09:34:42;;;;;;;;;;;10.70;90.10;;;;;;5109547;28;20596;-67
2023/04/25 09:37:10;;;;;;;;;;;10.70;90.10;;;;;;5109545;28;19932;-67
2023/04/25 09:39:39;;;;;;;;;;;10.70;90.00;;;;;;5109313;28;19912;-67
2023/04/25 09:42:05;;;;;;;;;;;10.80;90.00;;;;;;5109215;28;19947;-67
2023/04/25 09:44:30;;;;;;;;;;;10.80;90.00;;;;;;5109320;27;20281;-67
2023/04/25 09:46:56;;;;;;;;;;;10.80;89.80;;;;;;5109539;28;19915;-67
2023/04/25 09:49:22;;;;;;;;;;;10.90;89.50;;;;;;5108998;28;19935;-67
2023/04/25 09:51:57;;;;;;;;;;;10.90;89.30;;;;;;5109187;28;20361;-67
2023/04/25 09:54:23;;;;;;;;;;;10.90;89.30;;;;;;5109042;27;19919;-67
2023/04/25 09:56:51;;;;;;;;;;;11.00;89.30;;;;;;5107065;28;19960;-67
2023/04/25 09:59:17;;;;;;;;;;;11.00;89.30;;;;;;5107269;28;19918;-67
2023/04/25 10:01:42;;;;;;;;;;;11.00;89.00;;;;;;5108926;28;20345;-67
2023/04/25 10:04:10;;;;;;;;;;;11.10;89.00;;;;;;5108420;28;19918;-66
2023/04/25 10:06:37;;;;;;;;;;;11.10;88.90;;;;;;5105778;28;19998;-67
2023/04/25 10:09:03;;;;;;;;;;;11.10;88.80;;;;;;5107562;27;19960;-67
2023/04/25 10:11:30;;;;;;;;;;;11.10;88.70;;;;;;5096355;28;19915;-67
2023/04/25 10:13:56;;;;;;;;;;;11.10;88.70;;;;;;5108556;28;19908;-67
2023/04/25 10:16:21;;;;;;;;;;;11.10;88.60;;;;;;5108603;28;19918;-67
2023/04/25 10:18:48;;;;;;;;;;;11.20;88.30;;;;;;5106827;28;20384;-67
2023/04/25 10:21:14;;;;;;;;;;;11.30;88.10;;;;;;5108795;28;19915;-67
2023/04/25 10:23:40;;;;;;;;;;;11.30;87.70;;;;;;5108331;28;19912;-67
2023/04/25 10:26:12;;;;;;;;;;;11.40;87.90;;;;;;5108614;28;19919;-67
2023/04/25 10:28:57;;;;;;;;;;;11.40;87.70;;;;;;5099480;28;19916;-67
2023/04/25 10:31:23;;;;;;;;;;;11.40;87.20;;;;;;5088293;28;19923;-67
2023/04/25 10:33:49;;;;;;;;;;;11.30;87.50;;;;;;5106503;28;19915;-67
2023/04/25 10:36:17;;;;;;;;;;;11.30;88.20;;;;;;5108688;28;19915;-67
2023/04/25 10:38:43;;;;;;;;;;;11.30;88.30;;;;;;5112896;28;19912;-67
2023/04/25 10:41:09;;;;;;;;;;;11.20;88.30;;;;;;5112595;28;19912;-67
2023/04/25 10:43:36;;;;;;;;;;;11.20;88.20;;;;;;5111239;28;19919;-67
2023/04/25 10:46:02;;;;;;;;;;;11.20;88.10;;;;;;5112800;28;19912;-67
2023/04/25 10:48:31;;;;;;;;;;;11.20;87.60;;;;;;5112595;28;19915;-67
2023/04/25 10:51:10;;;;;;;;;;;11.20;88.00;;;;;;5112500;28;20288;-67
2023/04/25 10:53:35;;;;;;;;;;;11.20;87.70;;;;;;5112110;28;20021;-67
2023/04/25 10:56:09;;;;;;;;;;;11.20;87.50;;;;;;5110926;28;20061;-67
2023/04/25 10:58:34;;;;;;;;;;;11.20;87.40;;;;;;5095406;28;19989;-67
2023/04/25 11:01:01;;;;;;;;;;;11.20;87.40;;;;;;5091967;28;19912;-67
2023/04/25 11:03:26;;;;;;;;;;;11.20;87.40;;;;;;5090358;28;19913;-67
2023/04/25 11:05:52;;;;;;;;;;;11.20;87.00;;;;;;5108368;28;19964;-67
2023/04/25 11:08:24;;;;;;;;;;;11.10;87.30;;;;;;5112111;28;19919;-67
2023/04/25 11:10:49;;;;;;;;;;;11.10;87.50;;;;;;5112113;28;19908;-67
2023/04/25 11:13:15;;;;;;;;;;;11.10;87.30;;;;;;5111834;28;19914;-67
2023/04/25 11:15:40;;;;;;;;;;;11.10;87.10;;;;;;5112353;28;19927;-67
2023/04/25 11:18:06;;;;;;;;;;;11.00;87.20;;;;;;5112313;27;19912;-67
2023/04/25 11:20:31;;;;;;;;;;;11.10;86.70;;;;;;5111925;28;20006;-67
2023/04/25 11:22:59;;;;;;;;;;;11.10;87.00;;;;;;5110271;28;20268;-67
2023/04/25 11:25:25;;;;;;;;;;;11.00;87.00;;;;;;5111904;28;19907;-67
2023/04/25 11:27:51;;;;;;;;;;;11.00;87.40;;;;;;5111828;28;19949;-67
2023/04/25 11:30:17;;;;;;;;;;;11.00;87.50;;;;;;5111587;28;19912;-67
2023/04/25 11:32:45;;;;;;;;;;;11.00;87.60;;;;;;5111714;28;20097;-67
2023/04/25 11:35:11;;;;;;;;;;;11.00;87.70;;;;;;5111787;28;20280;-67
2023/04/25 11:37:39;;;;;;;;;;;10.90;87.90;;;;;;5111646;28;19939;-67
2023/04/25 11:40:06;;;;;;;;;;;11.00;88.00;;;;;;5111281;28;19999;-67
2023/04/25 11:42:32;;;;;;;;;;;11.00;87.90;;;;;;5111109;28;20609;-67
2023/04/25 11:44:58;;;;;;;;;;;11.00;87.50;;;;;;5111543;28;19957;-67
2023/04/25 11:47:28;;;;;;;;;;;11.10;87.00;;;;;;5110807;28;20373;-67
2023/04/25 11:49:53;;;;;;;;;;;11.10;87.30;;;;;;5110569;28;19922;-67
2023/04/25 11:52:19;;;;;;;;;;;11.10;87.00;;;;;;5111161;28;19915;-67
2023/04/25 11:54:45;;;;;;;;;;;11.20;87.20;;;;;;5111340;28;20020;-67
2023/04/25 11:57:11;;;;;;;;;;;11.20;87.40;;;;;;5106172;28;19912;-67
2023/04/25 11:59:37;;;;;;;;;;;11.20;87.20;;;;;;5109991;28;19916;-67
2023/04/25 12:02:02;;;;;;;;;;;11.30;87.30;;;;;;5111119;28;20610;-67
2023/04/25 12:04:30;;;;;;;;;;;11.40;86.80;;;;;;5110882;28;19911;-67
2023/04/25 12:06:55;;;;;;;;;;;11.40;87.20;;;;;;5109926;28;20009;-67
2023/04/25 12:09:29;;;;;;;;;;;11.40;87.10;;;;;;5111149;28;19912;-67
2023/04/25 12:11:55;;;;;;;;;;;11.50;87.20;;;;;;5110928;28;19919;-67
2023/04/25 12:14:27;;;;;;;;;;;11.60;86.80;;;;;;5111161;28;20272;-67
2023/04/25 12:16:55;;;;;;;;;;;11.60;86.70;;;;;;5111187;28;19916;-67
2023/04/25 12:19:20;;;;;;;;;;;11.70;86.10;;;;;;5110618;28;19920;-67
2023/04/25 12:21:46;;;;;;;;;;;11.80;86.20;;;;;;5110812;28;19919;-68
2023/04/25 12:24:16;;;;;;;;;;;11.90;85.90;;;;;;5109537;28;19915;-67
2023/04/25 12:26:52;;;;;;;;;;;12.00;86.10;;;;;;5110735;27;19916;-67
2023/04/25 12:29:18;;;;;;;;;;;11.90;86.00;;;;;;5110813;28;19916;-67
2023/04/25 12:31:45;;;;;;;;;;;12.00;85.10;;;;;;5110876;28;19907;-67
2023/04/25 12:34:10;;;;;;;;;;;12.10;84.80;;;;;;5110868;28;19912;-67
2023/04/25 12:36:36;;;;;;;;;;;12.20;84.40;;;;;;5110507;28;20383;-67
2023/04/25 12:39:04;;;;;;;;;;;12.30;84.20;;;;;;5110897;28;19999;-67
2023/04/25 12:41:29;;;;;;;;;;;12.30;83.90;;;;;;5110230;28;19911;-67
2023/04/25 12:43:55;;;;;;;;;;;12.30;83.40;;;;;;5110270;28;19907;-67
2023/04/25 12:46:22;;;;;;;;;;;12.40;83.30;;;;;;5110637;28;19908;-67
2023/04/25 12:48:48;;;;;;;;;;;12.40;82.90;;;;;;5110714;28;19911;-67
2023/04/25 12:51:13;;;;;;;;;;;12.40;83.30;;;;;;5110408;28;19915;-67
2023/04/25 12:53:40;;;;;;;;;;;12.40;83.20;;;;;;5110215;28;19952;-67
2023/04/25 12:56:07;;;;;;;;;;;12.40;83.00;;;;;;5110034;28;20437;-68
2023/04/25 12:58:33;;;;;;;;;;;12.40;83.00;;;;;;5103983;28;19912;-67
2023/04/25 13:00:58;;;;;;;;;;;12.50;82.60;;;;;;5109233;28;19952;-67
2023/04/25 13:03:25;;;;;;;;;;;12.50;83.30;;;;;;5109859;28;19912;-67
2023/04/25 13:05:52;;;;;;;;;;;12.50;83.20;;;;;;5110007;28;19915;-67
2023/04/25 13:08:20;;;;;;;;;;;12.40;83.10;;;;;;5110015;28;19915;-67
2023/04/25 13:10:47;;;;;;;;;;;12.30;83.40;;;;;;5109929;28;20010;-67
2023/04/25 13:13:12;;;;;;;;;;;12.30;83.80;;;;;;5109662;28;19911;-67
2023/04/25 13:15:38;;;;;;;;;;;12.20;83.80;;;;;;5108472;28;19912;-67
2023/04/25 13:18:05;;;;;;;;;;;12.20;83.90;;;;;;5108363;28;19908;-67
2023/04/25 13:20:30;;;;;;;;;;;12.10;84.30;;;;;;5109299;28;19938;-67
2023/04/25 13:23:03;;;;;;;;;;;12.00;84.20;;;;;;5062116;28;19970;-67
2023/04/25 13:25:29;;;;;;;;;;;12.00;84.60;;;;;;5062317;28;19917;-67
2023/04/25 13:27:54;;;;;;;;;;;12.00;85.10;;;;;;5044180;28;19909;-67
2023/04/25 13:30:20;;;;;;;;;;;12.00;84.90;;;;;;5062349;28;20417;-67
2023/04/25 13:32:46;;;;;;;;;;;12.00;85.10;;;;;;5061999;28;20437;-67
2023/04/25 13:35:13;;;;;;;;;;;12.00;84.80;;;;;;5062194;27;19974;-67
2023/04/25 13:37:39;;;;;;;;;;;12.00;84.80;;;;;;5062197;28;20312;-67
2023/04/25 13:40:09;;;;;;;;;;;11.90;84.10;;;;;;5061909;28;19919;-67
2023/04/25 13:42:35;;;;;;;;;;;11.90;83.40;;;;;;5061715;28;19931;-67
2023/04/25 13:45:01;;;;;;;;;;;11.90;83.50;;;;;;5062073;28;19944;-67
2023/04/25 13:47:30;;;;;;;;;;;11.90;83.60;;;;;;5062080;28;19993;-67
2023/04/25 13:49:56;;;;;;;;;;;11.90;84.30;;;;;;5062088;28;19951;-67
2023/04/25 13:52:23;;;;;;;;;;;11.90;83.50;;;;;;5043718;28;20691;-68
2023/04/25 13:54:49;;;;;;;;;;;11.90;83.10;;;;;;5061823;28;19915;-67
2023/04/25 13:57:15;;;;;;;;;;;11.90;83.60;;;;;;5056278;28;19913;-67
2023/04/25 13:59:40;;;;;;;;;;;11.90;83.40;;;;;;5061099;28;20369;-67
2023/04/25 14:02:07;;;;;;;;;;;12.00;83.10;;;;;;5043295;28;20611;-67
2023/04/25 14:04:32;;;;;;;;;;;12.00;82.90;;;;;;5060092;28;20561;-67
2023/04/25 14:06:58;;;;;;;;;;;12.10;82.60;;;;;;5061603;28;19968;-67
2023/04/25 14:09:25;;;;;;;;;;;12.20;82.90;;;;;;5061822;27;19908;-67
2023/04/25 14:11:52;;;;;;;;;;;12.20;82.70;;;;;;5061765;27;19986;-68
2023/04/25 14:14:17;;;;;;;;;;;12.20;82.50;;;;;;5061922;28;20384;-67
2023/04/25 14:16:43;;;;;;;;;;;12.20;82.70;;;;;;5061688;28;19989;-68
2023/04/25 14:19:09;;;;;;;;;;;12.30;82.70;;;;;;5045317;28;19924;-68